Portada
METAR-TAF:

METAR-TAF

Aeropuertos :

Tarawa, Kiribati

Aeropuerto Internacional Bonriki

latitud: 01-21N, longitud: 172-55E, altitud: 2 m

Observación

El informe se hizo hace 34 minutos, a las 20:00 UTC
Viento 12 kt del este-noreste
Temperatura 28°C
Humedad 89%
Presión 1011 hPa
Visibilidad 10 km o más
Escasas nubes a una altura de 1700 ft, Cumulus congestus.
Nubes dispersas a una altura de 30000 ft

METAR: NGTA 272000Z 07012KT 9999 FEW017TCU SCT300 28/26 Q1011

Hora: 10:34 (20:34 UTC)

Pronóstico

El informe se hizo hace 3 horas y 16 minutos, a las 17:18 UTC
Pronóstico válido del 27 a las 18 UTC al 28 a las 18 UTC
Viento 13 kt del noreste
Visibilidad 10 km o más
Escasas nubes a una altura de 1800 ft

TAF: NGTA 271718Z 2718/2818 05013KT 9999 FEW018

Observaciones y pronósticos meteorológicos de más de 4000 aeropuertos (mensajes METAR y TAF).

Los puntos amarillos y rojos representan las estaciones disponibles.

Ponga el ratón en el punto deseado para ver el nombre de la estación.

Haga clic para ver las observaciones y los pronósticos meteorológicos.

Para cambiar el mapa : haga clic en los botones verdes con una cruz de color negro para hacer un zoom, en el botón verde con un guión para alejar o en las flechas verdes para mapas adyacentes.


METAR-TAF: